Madison, Alabama
Current Conditions -  °F | °C
As of 5:58 PM on Wednesday 24 Dec 2014 (Local Time) from KHUA Reporting Station
Overcast Overcast  
Wind Chill: 47°   Ceiling: 3800
Heat Index: 47°   Visibility: 10mi
Dew Point: 43°   Wind: 3mph
Humidity: 88%   Direction: 230°SW
Pressure: 29.84"   Gusts: NA
Location:  34.71°N, 86.75°W
Report Text: KHUA 242358Z AUTO 23003KT 10SM FEW023 BKN038 OVC048 08/06 A2984 RMK AO2 SLP106 T00810063 10085 20081 52025
Loading
Personal Weather Stations






























Interactive Weather Map New forecast layout! Learn more

10-Day Weather Forecast

Advertisements
Track Severe Weather on mobile